• Join FlightAware (Why Join?)
  • Login
  • US Flag 
11:55PM EDT


 

Airport Tracker/Info


-or-


 

Live Flight TrackerFlight Track Log ✈ THY2458 ✈ 24-Aug-2013 ✈ LTBA / IST - LTAF / ADA

Flight Track Log - Related Links

Times and Time Zones

All times are in EDT time to prevent confusion due to time zone crossing. See the THY2458 flight status page for this flight to view local times or setup timezone preferences in your user account.

Time Position Orientation Groundspeed Altitude Reporting Facility
EDT Latitude Longitude Course Direction KTS MPH feet Rate Location/Type
02:12AM 40.4379 29.7735 126° Southeast  Level Estimated
02:13AM 40.3700 29.8914 127° Southeast  Level Estimated
02:14AM 40.3019 30.0091 127° Southeast  Level Estimated
02:15AM 40.2338 30.1266 127° Southeast  Level Estimated
02:16AM 40.1655 30.2439 127° Southeast  Level Estimated
02:17AM 40.0971 30.3609 127° Southeast  Level Estimated
02:18AM 40.0286 30.4777 127° Southeast  Level Estimated
02:19AM 39.9599 30.5942 128° Southeast  Level Estimated
02:20AM 39.8912 30.7105 128° Southeast  Level Estimated
02:21AM 39.8223 30.8266 128° Southeast  Level Estimated
02:22AM 39.7533 30.9425 128° Southeast  Level Estimated
02:23AM 39.6842 31.0581 128° Southeast  Level Estimated
02:24AM 39.6150 31.1735 128° Southeast  Level Estimated
02:25AM 39.5457 31.2886 128° Southeast  Level Estimated
02:26AM 39.4763 31.4035 128° Southeast  Level Estimated
02:27AM 39.4067 31.5182 128° Southeast  Level Estimated
02:28AM 39.3371 31.6327 128° Southeast  Level Estimated
02:29AM 39.2673 31.7469 128° Southeast  Level Estimated
02:30AM 39.1974 31.8609 128° Southeast  Level Estimated
02:31AM 39.1274 31.9747 128° Southeast  Level Estimated
02:32AM 39.0573 32.0883 128° Southeast  Level Estimated
02:33AM 38.9871 32.2016 129° Southeast  Level Estimated
02:34AM 38.9167 32.3147 129° Southeast  Level Estimated
02:35AM 38.8463 32.4276 129° Southeast  Level Estimated
02:36AM 38.7757 32.5402 129° Southeast  Level Estimated
02:37AM 38.7051 32.6527 129° Southeast  Level Estimated
02:38AM 38.6343 32.7649 129° Southeast  Level Estimated
02:39AM 38.5635 32.8769 129° Southeast  Level Estimated
02:40AM 38.4925 32.9887 129° Southeast  Level Estimated
02:41AM 38.4214 33.1002 129° Southeast  Level Estimated
02:42AM 38.3502 33.2115 129° Southeast  Level Estimated
02:43AM 38.2789 33.3227 129° Southeast  Level Estimated
02:44AM 38.2076 33.4336 129° Southeast  Level Estimated
02:45AM 38.1361 33.5442 129° Southeast  Level Estimated
02:46AM 38.0645 33.6547 129° Southeast  Level Estimated
02:47AM 37.9928 33.7649 130° Southeast  Level Estimated
02:48AM 37.9210 33.8750 130° Southeast  Level Estimated
02:49AM 37.8490 33.9848 130° Southeast  Level Estimated
02:50AM 37.7770 34.0944 130° Southeast  Level Estimated
02:51AM 37.7049 34.2038 130° Southeast  Level Estimated
02:52AM 37.6327 34.3129 130° Southeast  Level Estimated
02:53AM 37.5604 34.4219 130° Southeast  Level Estimated
02:54AM 37.4880 34.5306 130° Southeast  Level Estimated
02:55AM 37.4155 34.6392 130° Southeast  Level Estimated
02:56AM 37.3429 34.7475 130° Southeast  Level Estimated
02:57AM 37.2702 34.8556 130° Southeast  Level Estimated
02:58AM 37.1973 34.9635 130° Southeast  Level Estimated
02:59AM 37.1244 35.0712 130° Southeast  Level Estimated
03:00AM 37.0514 35.1787 130° Southeast  Level Estimated
03:01AM 36.9822 35.2804 130° Southeast  Level Estimated
03:02AM 36.9822 35.2804 202° Southwest  Level Estimated
03:03AM 36.9822 35.2804 202° Southwest  Level Estimated
03:04AM 36.9822 35.2804 202° Southwest  Level Estimated
03:05AM 36.9822 35.2804 202° Southwest  Level Estimated
03:06AM 36.9822 35.2804 202° Southwest  Level Estimated
03:07AM 36.9822 35.2804 202° Southwest  Level Estimated
03:08AM 36.9822 35.2804 202° Southwest  Level Estimated
03:09AM 36.9822 35.2804 202° Southwest  Level Estimated
03:10AM 36.9822 35.2804 202° Southwest  Level Estimated
03:11AM 36.9822 35.2804 202° Southwest  Level Estimated
03:12AM 36.9822 35.2804 202° Southwest  Level Estimated
03:13AM 36.9822 35.2804 202° Southwest  Level Estimated
03:14AM 36.9822 35.2804 202° Southwest  Level Estimated
03:15AM 36.9822 35.2804 202° Southwest  Level Estimated
03:16AM 36.9822 35.2804 202° Southwest  Level Estimated
03:17AM 36.9822 35.2804 202° Southwest  Level Estimated